Flight Track Log - Related Links

Times and Time Zones

All times are in EDT time to prevent confusion due to time zone crossing. See the TAM3870 flight status page for this flight to view local times or setup timezone preferences in your user account.


Time Position Orientation Groundspeed Altitude Reporting Facility
EDT Latitude Longitude Course Direction KTS MPH feet Rate Location/Type
Sat 06:34:02 AM -19.6320 -43.9700 137° Southeast 140 161  Level FlightAware ADS-B
Sat 06:34:24 AM -19.6430 -43.9600 139° Southeast 169 194 2,800 5,657 Climbing FlightAware ADS-B
Sat 06:34:37 AM -19.6520 -43.9520 140° Southeast 173 199 3,300 2,000 Climbing FlightAware ADS-B
Sat 06:34:42 AM -19.6550 -43.9500 148° Southeast 178 205 3,400 1,200 Climbing FlightAware ADS-B
Sat 06:35:02 AM -19.6720 -43.9450 165° South 205 236 3,800 1,029 Climbing FlightAware ADS-B
Sat 06:35:17 AM -19.6870 -43.9430 173° South 230 265 4,000 960 Climbing FlightAware ADS-B
Sat 06:35:27 AM -19.6960 -43.9440 186° South 250 288 4,200 800 Climbing FlightAware ADS-B
Sat 06:35:32 AM -19.7050 -43.9490 208° Southwest 260 299 4,200 1,200 Level FlightAware ADS-B
Sat 06:35:37 AM -19.7090 -43.9520 215° Southwest 269 310 4,400 2,000 Climbing FlightAware ADS-B
Sat 06:35:47 AM -19.7160 -43.9620 233° Southwest 279 321 4,700 2,000 Climbing FlightAware ADS-B
Sat 06:35:52 AM -19.7190 -43.9700 248° West 282 325 4,900 3,000 Climbing FlightAware ADS-B
Sat 06:35:57 AM -19.7200 -43.9770 261° West 282 325 5,200 3,600 Climbing FlightAware ADS-B
Sat 06:36:22 AM -19.7070 -44.0070 295° West 274 315 6,700 3,600 Climbing FlightAware ADS-B
Sat 06:36:37 AM -19.6920 -44.0200 321° Northwest 272 313 7,600 3,000 Climbing FlightAware ADS-B
Sat 06:37:02 AM -19.6660 -44.0390 325° Northwest 286 329 8,700 2,760 Climbing FlightAware ADS-B
Sat 06:37:27 AM -19.6390 -44.0610 322° Northwest 290 334 9,900 2,836 Climbing FlightAware ADS-B
Sat 06:37:57 AM -19.6070 -44.0870 323° Northwest 297 342 11,300 3,171 Climbing FlightAware ADS-B
Sat 06:38:37 AM -19.5660 -44.1220 321° Northwest 291 335 13,600 2,486 Climbing FlightAware ADS-B
Sat 06:39:07 AM -19.5320 -44.1520 320° Northwest 317 365 14,200 1,015 Climbing FlightAware ADS-B
Sat 06:39:42 AM -19.4900 -44.1870 322° Northwest 353 406 14,700 1,114 Climbing FlightAware ADS-B
Sat 06:40:17 AM -19.4430 -44.2270 321° Northwest 377 434 15,500 1,840 Climbing FlightAware ADS-B
Sat 06:40:57 AM -19.3920 -44.2740 319° Northwest 379 436 17,000 2,083 Climbing FlightAware ADS-B
Sat 06:41:29 AM -19.3510 -44.3120 319° Northwest 383 441 18,000 2,031 Climbing FlightAware ADS-B
Sat 06:42:02 AM -19.3030 -44.3570 318° Northwest 384 442 19,200 2,055 Climbing FlightAware ADS-B
Sat 06:42:42 AM -19.2500 -44.4070 318° Northwest 389 448 20,500 1,680 Climbing FlightAware ADS-B
Sat 06:43:17 AM -19.2010 -44.4520 319° Northwest 396 456 21,300 1,477 Climbing FlightAware ADS-B
Sat 06:43:47 AM -19.1610 -44.4890 319° Northwest 399 459 22,100 1,569 Climbing FlightAware ADS-B
Sat 06:44:22 AM -19.1100 -44.5360 319° Northwest 402 463 23,000 1,360 Climbing FlightAware ADS-B
Sat 06:45:02 AM -19.0540 -44.5880 319° Northwest 410 472 23,800 1,352 Climbing FlightAware ADS-B
Sat 06:45:33 AM -19.0120 -44.6270 319° Northwest 412 474 24,600 1,569 Climbing FlightAware ADS-B
Sat 06:46:07 AM -18.9600 -44.6750 319° Northwest 412 474 25,500 1,459 Climbing FlightAware ADS-B
Sat 06:46:47 AM -18.9030 -44.7280 319° Northwest 414 476 26,400 1,280 Climbing FlightAware ADS-B
Sat 06:47:22 AM -18.8510 -44.7750 319° Northwest 418 481 27,100 1,200 Climbing FlightAware ADS-B
Sat 06:47:52 AM -18.8090 -44.8140 319° Northwest 421 484 27,700 1,292 Climbing FlightAware ADS-B
Sat 06:48:27 AM -18.7570 -44.8620 319° Northwest 421 484 28,500 1,629 Climbing FlightAware ADS-B
Sat 06:49:02 AM -18.7060 -44.9090 319° Northwest 413 475 29,600 1,714 Climbing FlightAware ADS-B
Sat 06:49:37 AM -18.6550 -44.9550 319° Northwest 408 470 30,500 1,360 Climbing FlightAware ADS-B
Sat 06:50:17 AM -18.5990 -45.0060 319° Northwest 404 465 31,300 1,286 Climbing FlightAware ADS-B
Sat 06:50:47 AM -18.5560 -45.0460 319° Northwest 394 453 32,000 600 Climbing FlightAware ADS-B
Sat 06:51:27 AM -18.5040 -45.0940 319° Northwest 387 445 32,000  Level FlightAware ADS-B
Sat 06:51:57 AM -18.4620 -45.1330 319° Northwest 390 449 32,000  Level FlightAware ADS-B
Sat 06:52:32 AM -18.4160 -45.1750 319° Northwest 391 450 32,000  Level FlightAware ADS-B
Sat 06:53:12 AM -18.3590 -45.2260 320° Northwest 392 451 32,000  Level FlightAware ADS-B
Sat 06:53:47 AM -18.3110 -45.2700 319° Northwest 392 451 32,000  Level FlightAware ADS-B
Sat 06:54:17 AM -18.2700 -45.3080 319° Northwest 392 451 32,000  Level FlightAware ADS-B
Sat 06:54:52 AM -18.2220 -45.3520 319° Northwest 393 452 32,000  Level FlightAware ADS-B
Sat 06:55:32 AM -18.1680 -45.4000 320° Northwest 394 453 32,000  Level FlightAware ADS-B
Sat 06:56:04 AM -18.1250 -45.4390 319° Northwest 395 455 32,000  Level FlightAware ADS-B
Sat 06:56:42 AM -18.0690 -45.4890 320° Northwest 396 456 32,000  Level FlightAware ADS-B
Sat 06:57:17 AM -18.0210 -45.5300 321° Northwest 396 456 32,000  Level FlightAware ADS-B
Sat 06:57:47 AM -17.9790 -45.5670 320° Northwest 396 456 32,000  Level FlightAware ADS-B
Sat 06:58:22 AM -17.9270 -45.6130 320° Northwest 398 458 32,000  Level FlightAware ADS-B
Sat 06:59:02 AM -17.8700 -45.6620 321° Northwest 399 459 32,000  Level FlightAware ADS-B
Sat 06:59:37 AM -17.8230 -45.7040 320° Northwest 399 459 32,000  Level FlightAware ADS-B
Sat 07:00:07 AM -17.7790 -45.7420 321° Northwest 399 459 32,000  Level FlightAware ADS-B
Sat 07:00:43 AM -17.7280 -45.7870 320° Northwest 399 459 32,000  Level FlightAware ADS-B
Sat 07:01:22 AM -17.6720 -45.8360 320° Northwest 400 460 32,000  Level FlightAware ADS-B
Sat 07:02:02 AM -17.6150 -45.8860 320° Northwest 401 461 32,000  Level FlightAware ADS-B
Sat 07:02:37 AM -17.5680 -45.9270 320° Northwest 401 461 32,000  Level FlightAware ADS-B
Sat 07:03:12 AM -17.5150 -45.9720 321° Northwest 402 463 32,000  Level FlightAware ADS-B
Sat 07:03:47 AM -17.4690 -46.0130 320° Northwest 402 463 32,000  Level FlightAware ADS-B
Sat 07:04:22 AM -17.4140 -46.0600 321° Northwest 402 463 32,000  Level FlightAware ADS-B
Sat 07:05:07 AM -17.3620 -46.1070 319° Northwest 401 461 32,000  Level FlightAware ADS-B
Sat 07:06:02 AM -17.2710 -46.1850 321° Northwest 404 465 32,000  Level FlightAware ADS-B
Sat 07:06:37 AM -17.2260 -46.2240 320° Northwest 404 465 32,000  Level FlightAware ADS-B
Sat 07:07:16 AM -17.1790 -46.2660 320° Northwest 404 465 32,000  Level FlightAware ADS-B
Sat 07:07:52 AM -17.1350 -46.3040 320° Northwest 404 465 32,000  Level FlightAware ADS-B
Sat 07:08:28 AM -17.0910 -46.3430 320° Northwest 404 465 32,000  Level FlightAware ADS-B
Sat 07:09:05 AM -17.0460 -46.3820 320° Northwest 404 465 32,000  Level FlightAware ADS-B
Sat 07:09:41 AM -17.0020 -46.4210 320° Northwest 404 465 32,000  Level FlightAware ADS-B
Sat 07:10:17 AM -16.9580 -46.4590 320° Northwest 404 465 32,000  Level FlightAware ADS-B
Sat 07:10:53 AM -16.9140 -46.4980 320° Northwest 404 465 32,000  Level FlightAware ADS-B
Sat 07:11:29 AM -16.8710 -46.5360 320° Northwest 404 465 32,000  Level FlightAware ADS-B
Sat 07:12:06 AM -16.8260 -46.5760 320° Northwest 404 465 32,000  Level FlightAware ADS-B
Sat 07:12:41 AM -16.7830 -46.6130 321° Northwest 404 465 32,000  Level FlightAware ADS-B
Sat 07:13:29 AM -16.7250 -46.6640 320° Northwest 404 465 32,000  Level FlightAware ADS-B
Sat 07:14:05 AM -16.6810 -46.7030 320° Northwest 404 465 32,000  Level FlightAware ADS-B
Sat 07:14:42 AM -16.6360 -46.7420 320° Northwest 404 465 32,000  Level FlightAware ADS-B
Sat 07:15:18 AM -16.5920 -46.7800 320° Northwest 404 465 32,000  Level FlightAware ADS-B
Sat 07:15:54 AM -16.5480 -46.8190 320° Northwest 404 465 32,000  Level FlightAware ADS-B
Sat 07:16:30 AM -16.5040 -46.8570 320° Northwest 404 465 32,000 -2,384 Level FlightAware ADS-B
Sat 07:18:59 AM -16.3610 -47.2710 302° West 23,200 -2,707 Descending FlightAware ADS-B
Sat 07:19:00 AM -16.4013 -47.0271 302° West  Level Estimated
Sat 07:20:21 AM -16.2660 -47.3720 314° West 20,600  Level FlightAware ADS-B
Sat 07:20:56 AM -16.2240 -47.4160 315° West 326 375 20,000 -1,099 Descending FlightAware ADS-B
Sat 07:21:32 AM -16.1880 -47.4550 314° West 316 364 19,300 -1,417 Descending FlightAware ADS-B
Sat 07:22:08 AM -16.1500 -47.4950 315° West 315 362 18,300 -1,588 Descending FlightAware ADS-B
Sat 07:22:40 AM -16.1170 -47.5300 314° West 316 364 17,500 -1,500 Descending FlightAware ADS-B
Sat 07:23:16 AM -16.0800 -47.5690 315° West 314 361 16,600 -1,500 Descending FlightAware ADS-B
Sat 07:23:52 AM -16.0430 -47.6080 315° West 309 356 15,700 -1,478 Descending FlightAware ADS-B
Sat 07:24:25 AM -16.0110 -47.6410 315° West 309 356 14,900 -1,412 Descending FlightAware ADS-B
Sat 07:25:00 AM -15.9750 -47.6790 315° West 306 352 14,100 -1,529 Descending FlightAware ADS-B
Sat 07:25:16 AM -15.9630 -47.6980 303° West 301 346 13,600 -1,269 Descending FlightAware ADS-B
Sat 07:25:52 AM -15.9630 -47.7480 270° West 281 323 13,000 -882 Descending FlightAware ADS-B
Sat 07:26:24 AM -15.9660 -47.7900 266° West 267 307 12,600 -686 Descending FlightAware ADS-B
Sat 07:27:02 AM -15.9690 -47.8360 266° West 247 284 12,200 -493 Descending FlightAware ADS-B
Sat 07:27:37 AM -15.9720 -47.8760 266° West 242 278 12,000 -176 Descending FlightAware ADS-B
Sat 07:28:10 AM -15.9740 -47.9160 267° West 243 280 12,000  Level FlightAware ADS-B
Sat 07:28:46 AM -15.9770 -47.9580 266° West 242 278 12,000 -333 Level FlightAware ADS-B
Sat 07:29:22 AM -15.9800 -47.9990 266° West 239 275 11,600 -818 Descending FlightAware ADS-B
Sat 07:29:52 AM -15.9830 -48.0330 265° West 237 273 11,100 -1,164 Descending FlightAware ADS-B
Sat 07:30:29 AM -15.9850 -48.0720 267° West 238 274 10,300 -1,309 Descending FlightAware ADS-B
Sat 07:30:47 AM -15.9860 -48.0960 268° West 239 275 9,900 -1,105 Descending FlightAware ADS-B
Sat 07:31:07 AM -15.9870 -48.1180 267° West 237 273 9,600 -1,034 Descending FlightAware ADS-B
Sat 07:31:16 AM -15.9860 -48.1300 275° West 240 276 9,400 -1,714 Descending FlightAware ADS-B
Sat 07:31:21 AM -15.9850 -48.1350 282° West 243 280 9,200 -1,600 Descending FlightAware ADS-B
Sat 07:31:31 AM -15.9790 -48.1460 300° West 244 281 9,000 -900 Descending FlightAware ADS-B
Sat 07:31:41 AM -15.9700 -48.1530 323° Northwest 239 275 8,900 -800 Descending FlightAware ADS-B
Sat 07:31:46 AM -15.9650 -48.1550 339° North 236 272 8,800 -1,200 Descending FlightAware ADS-B
Sat 07:31:51 AM -15.9600 -48.1560 349° North 230 265 8,700 -1,091 Descending FlightAware ADS-B
Sat 07:31:57 AM -15.9550 -48.1570 349° North 224 258 8,600 -1,846 Descending FlightAware ADS-B
Sat 07:32:17 AM -15.9340 -48.1520 13° North 225 259 7,900 -1,950 Descending FlightAware ADS-B
Sat 07:32:37 AM -15.9140 -48.1470 14° North 224 258 7,300 -2,069 Descending FlightAware ADS-B
Sat 07:32:46 AM -15.9050 -48.1430 23° Northeast 221 254 6,900 -2,211 Descending FlightAware ADS-B
Sat 07:32:56 AM -15.8990 -48.1350 52° Northeast 215 247 6,600 -1,125 Descending FlightAware ADS-B
Sat 07:33:02 AM -15.8960 -48.1300 58° Northeast 208 239 6,600 -800 Level FlightAware ADS-B
Sat 07:33:11 AM -15.8940 -48.1210 77° East 193 222 6,400 -800 Descending FlightAware ADS-B
Sat 07:33:32 AM -15.8910 -48.1040 80° East 174 200 6,200 -783 Descending FlightAware ADS-B
Sat 07:33:57 AM -15.8900 -48.0840 87° East 154 177 5,800 -840 Descending FlightAware ADS-B
Sat 07:34:22 AM -15.8890 -48.0670 87° East 144 166 5,500 -750 Descending FlightAware ADS-B
Sat 07:34:37 AM -15.8880 -48.0560 85° East 143 165 5,300 -750 Descending FlightAware ADS-B
Sat 07:35:02 AM -15.8870 -48.0390 87° East 145 167 5,000 -667 Descending FlightAware ADS-B
Sat 07:35:22 AM -15.8860 -48.0250 86° East 144 166 4,800 -769 Descending FlightAware ADS-B
Sat 07:35:41 AM -15.8850 -48.0120 85° East 143 165 4,500 -800 Descending FlightAware ADS-B
Sat 07:36:07 AM -15.8840 -47.9940 87° East 142 163 4,200 -667 Descending FlightAware ADS-B
Sat 07:36:26 AM -15.8830 -47.9810 85° East 144 166 4,000 -750 Descending FlightAware ADS-B
Sat 07:36:47 AM -15.8820 -47.9670 86° East 148 170 3,700 -732 Descending FlightAware ADS-B
Sat 07:37:07 AM -15.8820 -47.9520 90° East 148 170 3,500 -652 Descending FlightAware ADS-B
Sat 07:37:33 AM -15.8800 -47.9360 83° East 149 171 3,200 -305 Descending FlightAware ADS-B
Sat 07:38:06 AM -15.8790 -47.9150 87° East 143 165 3,200  Level FlightAware ADS-B

Login

Don't have an account? Register now (free) for customized features, flight alerts, and more!